METAR Data
IDs: Format: Raw Decoded Include TAF

Data at: 0118 UTC 16 Jan 2019

METAR for:PACD (Cold Bay Arpt, AK, US)
Text:PACD 160053Z 29005KT 2 1/2SM BR BKN005 OVC017 01/01 A2946 RMK AO2 SNE09B21E52 SLP978 P0001 T00060006
Temperature: 0.6°C ( 33°F)
Dewpoint: 0.6°C ( 33°F) [RH = 100%]
Pressure (altimeter):29.46 inches Hg ( 997.7 mb) [Sea level pressure: 997.8 mb]
Winds:from the WNW (290 degrees) at 6 MPH (5 knots; 2.6 m/s)
Visibility: 2.50 sm ( 4.02 km)
Ceiling:500 feet AGL
Clouds: broken clouds at 500 feet AGL, overcast cloud deck at 1700 feet AGL
Weather:BR (mist)
Text:PACD 160035Z 29006KT 2 1/2SM -SN BR BKN005 OVC017 01/01 A2946 RMK AO2 SNE09B21 P0001 T00060006
Temperature: 0.6°C ( 33°F)
Dewpoint: 0.6°C ( 33°F) [RH = 100%]
Pressure (altimeter):29.46 inches Hg ( 997.7 mb)
Winds:from the WNW (290 degrees) at 7 MPH (6 knots; 3.1 m/s)
Visibility: 2.50 sm ( 4.02 km)
Ceiling:500 feet AGL
Clouds: broken clouds at 500 feet AGL, overcast cloud deck at 1700 feet AGL
Weather:-SN BR (light snow, mist)
Text:PACD 160010Z 30005KT 4SM BR BKN005 OVC017 01/01 A2946 RMK AO2 SNE09 P0000 T00110006
Temperature: 1.1°C ( 34°F)
Dewpoint: 0.6°C ( 33°F) [RH = 96%]
Pressure (altimeter):29.46 inches Hg ( 997.7 mb)
Winds:from the WNW (300 degrees) at 6 MPH (5 knots; 2.6 m/s)
Visibility: 4 sm ( 6 km)
Ceiling:500 feet AGL
Clouds: broken clouds at 500 feet AGL, overcast cloud deck at 1700 feet AGL
Weather:BR (mist)
Text:PACD 160003Z 30005KT 4SM -SN BR BKN003 OVC019 01/01 A2946 RMK AO2 P0000 T00110006
Temperature: 1.1°C ( 34°F)
Dewpoint: 0.6°C ( 33°F) [RH = 96%]
Pressure (altimeter):29.46 inches Hg ( 997.7 mb)
Winds:from the WNW (300 degrees) at 6 MPH (5 knots; 2.6 m/s)
Visibility: 4 sm ( 6 km)
Ceiling:300 feet AGL
Clouds: broken clouds at 300 feet AGL, overcast cloud deck at 1900 feet AGL
Weather:-SN BR (light snow, mist)
Text:PACD 152353Z 31005KT 4SM -SN BR BKN005 OVC018 01/01 A2946 RMK AO2 UPB20E25SNB25 SLP977 P0001 60003 T00110006 10022 20000 57006
Temperature: 1.1°C ( 34°F)
Dewpoint: 0.6°C ( 33°F) [RH = 96%]
Pressure (altimeter):29.46 inches Hg ( 997.7 mb) [Sea level pressure: 997.7 mb]
Winds:from the NW (310 degrees) at 6 MPH (5 knots; 2.6 m/s)
Visibility: 4 sm ( 6 km)
Ceiling:500 feet AGL
Clouds: broken clouds at 500 feet AGL, overcast cloud deck at 1800 feet AGL
Weather:-SN BR (light snow, mist)
Text:PACD 152326Z 30003KT 7SM -SN BKN009 BKN019 OVC024 01/01 A2946 RMK AO2 UPB20E25SNB25 P0000 T00110006
Temperature: 1.1°C ( 34°F)
Dewpoint: 0.6°C ( 33°F) [RH = 96%]
Pressure (altimeter):29.46 inches Hg ( 997.7 mb)
Winds:from the WNW (300 degrees) at 3 MPH (3 knots; 1.5 m/s)
Visibility: 7 sm ( 11 km)
Ceiling:900 feet AGL
Clouds: broken clouds at 900 feet AGL, broken clouds at 1900 feet AGL, overcast cloud deck at 2400 feet AGL
Weather:-SN (light snow)
Text:PACD 152316Z 28004KT 10SM SCT016 BKN021 OVC039 01/01 A2946 RMK AO2 T00110006
Temperature: 1.1°C ( 34°F)
Dewpoint: 0.6°C ( 33°F) [RH = 96%]
Pressure (altimeter):29.46 inches Hg ( 997.7 mb)
Winds:from the W (280 degrees) at 5 MPH (4 knots; 2.1 m/s)
Visibility:10 or more sm (16+ km)
Ceiling:2100 feet AGL
Clouds: scattered clouds at 1600 feet AGL, broken clouds at 2100 feet AGL, overcast cloud deck at 3900 feet AGL
Text:PACD 152301Z 26004KT 10SM SCT023 OVC033 01/01 A2946 RMK AO2 T00110006
Temperature: 1.1°C ( 34°F)
Dewpoint: 0.6°C ( 33°F) [RH = 96%]
Pressure (altimeter):29.46 inches Hg ( 997.7 mb)
Winds:from the W (260 degrees) at 5 MPH (4 knots; 2.1 m/s)
Visibility:10 or more sm (16+ km)
Ceiling:3300 feet AGL
Clouds: scattered clouds at 2300 feet AGL, overcast cloud deck at 3300 feet AGL
Text:PACD 152253Z 27004KT 9SM SCT023 OVC028 01/01 A2946 RMK AO2 SNE53 SLP978 P0002 T00110006
Temperature: 1.1°C ( 34°F)
Dewpoint: 0.6°C ( 33°F) [RH = 96%]
Pressure (altimeter):29.46 inches Hg ( 997.7 mb) [Sea level pressure: 997.8 mb]
Winds:from the W (270 degrees) at 5 MPH (4 knots; 2.1 m/s)
Visibility: 9 sm ( 14 km)
Ceiling:2800 feet AGL
Clouds: scattered clouds at 2300 feet AGL, overcast cloud deck at 2800 feet AGL
Text:PACD 152153Z 05003KT 5SM -SN BR OVC022 01/01 A2948 RMK AO2 RAB2054E26UPB2055E07SNB26 SLP982 P0000 T00110006
Temperature: 1.1°C ( 34°F)
Dewpoint: 0.6°C ( 33°F) [RH = 96%]
Pressure (altimeter):29.48 inches Hg ( 998.4 mb) [Sea level pressure: 998.2 mb]
Winds:from the NE (50 degrees) at 3 MPH (3 knots; 1.5 m/s)
Visibility: 5 sm ( 8 km)
Ceiling:2200 feet AGL
Clouds: overcast cloud deck at 2200 feet AGL
Weather:-SN BR (light snow, mist)
Text:PACD 152118Z 07007KT 8SM -RA OVC028 02/01 A2948 RMK AO2 RAB2054UPB2055E07 P0000 T00170006
Temperature: 1.7°C ( 35°F)
Dewpoint: 0.6°C ( 33°F) [RH = 92%]
Pressure (altimeter):29.48 inches Hg ( 998.4 mb)
Winds:from the ENE (70 degrees) at 8 MPH (7 knots; 3.6 m/s)
Visibility: 8 sm ( 13 km)
Ceiling:2800 feet AGL
Clouds: overcast cloud deck at 2800 feet AGL
Weather:-RA (light rain)
Text:PACD 152053Z 08008KT 10SM OVC034 02/00 A2948 RMK AO2 SLP983 T00170000 53013
Temperature: 1.7°C ( 35°F)
Dewpoint: 0.0°C ( 32°F) [RH = 88%]
Pressure (altimeter):29.48 inches Hg ( 998.4 mb) [Sea level pressure: 998.3 mb]
Winds:from the E (80 degrees) at 9 MPH (8 knots; 4.1 m/s)
Visibility:10 or more sm (16+ km)
Ceiling:3400 feet AGL
Clouds: overcast cloud deck at 3400 feet AGL
Text:PACD 151953Z 00000KT 10SM OVC060 02/00 A2946 RMK AO2 SLP978 T00170000
Temperature: 1.7°C ( 35°F)
Dewpoint: 0.0°C ( 32°F) [RH = 88%]
Pressure (altimeter):29.46 inches Hg ( 997.7 mb) [Sea level pressure: 997.8 mb]
Winds:calm
Visibility:10 or more sm (16+ km)
Ceiling:6000 feet AGL
Clouds: overcast cloud deck at 6000 feet AGL

TAF for:PACD (Cold Bay Arpt, AK, US) issued at 0103 UTC 16 Jan 2019
Text:PACD 160103Z 1601/1624 02007KT P6SM -SHRASN BKN010 OVC020
Forecast period:0100 to 1600 UTC 16 January 2019
Forecast type:FROM: standard forecast or significant change
Winds:from the NNE (20 degrees) at 8 MPH (7 knots; 3.6 m/s)
Visibility:6 or more sm (10+ km)
Ceiling:1000 feet AGL
Clouds: broken clouds at 1000 feet AGL, overcast cloud deck at 2000 feet AGL
Weather:-SHRA -SHSN (light rain showers, light snow showers)
Text:TEMPO 1601/1604 2SM -SN BR OVC005
Forecast period:0100 to 0400 UTC 16 January 2019
Forecast type:TEMPORARY: The following changes expected for less than half the time period
Visibility: 2.00 sm ( 3.22 km)
Ceiling:500 feet AGL
Clouds: overcast cloud deck at 500 feet AGL
Weather:-SN BR (light snow, mist)
Text:FM161600 32012KT 6SM BR OVC007
Forecast period:1600 to 2000 UTC 16 January 2019
Forecast type:FROM: standard forecast or significant change
Winds:from the NW (320 degrees) at 14 MPH (12 knots; 6.2 m/s)
Visibility: 6 sm ( 10 km)
Ceiling:700 feet AGL
Clouds: overcast cloud deck at 700 feet AGL
Weather:BR (mist)
Text:FM162000 32015KT P6SM OVC015
Forecast period:2000 UTC 16 January 2019 to 0000 UTC 17 January 2019
Forecast type:FROM: standard forecast or significant change
Winds:from the NW (320 degrees) at 17 MPH (15 knots; 7.7 m/s)
Visibility:6 or more sm (10+ km)
Ceiling:1500 feet AGL
Clouds: overcast cloud deck at 1500 feet AGL